createdAt,value
2023-01-21T00:00:30.438Z,94402.66
2023-01-21T00:02:57.042Z,94387.53
2023-01-21T00:05:23.871Z,94391.66
2023-01-21T00:07:50.452Z,94401.22
2023-01-21T00:10:17.525Z,94409.28
2023-01-21T00:12:44.617Z,94414.88
2023-01-21T00:15:11.411Z,94404.47
2023-01-21T00:17:38.092Z,94409.84
2023-01-21T00:20:06.002Z,94381.28
2023-01-21T00:22:33.401Z,94416.25
2023-01-21T00:24:59.950Z,94412.81
2023-01-21T00:27:26.523Z,94393.41
2023-01-21T00:29:53.175Z,94402.63
2023-01-21T00:32:20.011Z,94422.69
2023-01-21T00:34:46.712Z,94414.22
2023-01-21T00:37:13.293Z,94418.13
2023-01-21T00:39:43.074Z,94405.97
2023-01-21T00:42:11.233Z,94393.28
2023-01-21T00:44:40.737Z,94393.63
2023-01-21T00:47:07.609Z,94397.91
2023-01-21T00:49:34.253Z,94377.44
2023-01-21T00:52:01.358Z,94408.22
2023-01-21T00:54:27.968Z,94394.59
2023-01-21T00:56:54.680Z,94397.59
2023-01-21T00:59:21.360Z,94397.75
2023-01-21T01:01:48.000Z,94402.50
2023-01-21T01:04:14.976Z,94400.44
2023-01-21T01:06:41.545Z,94408.91
2023-01-21T01:09:09.310Z,94408.50
2023-01-21T01:11:35.958Z,94406.41
2023-01-21T01:14:02.573Z,94413.97
2023-01-21T01:16:29.146Z,94403.16
2023-01-21T01:18:56.185Z,94386.47
2023-01-21T01:21:23.545Z,94401.66
2023-01-21T01:23:54.851Z,94409.09
2023-01-21T01:26:22.392Z,94407.88
2023-01-21T01:28:49.174Z,94401.31
2023-01-21T01:31:18.963Z,94399.06
2023-01-21T01:33:46.371Z,94380.72
2023-01-21T01:36:15.922Z,94366.00
2023-01-21T01:38:42.784Z,94370.34
2023-01-21T01:41:15.469Z,94373.25
2023-01-21T01:44:02.031Z,94383.72
2023-01-21T01:46:30.976Z,94367.53
2023-01-21T01:49:19.668Z,94369.50
2023-01-21T01:51:52.562Z,94353.25
2023-01-21T01:54:26.596Z,94347.19
2023-01-21T01:56:57.118Z,94338.69
2023-01-21T01:59:24.124Z,94366.06
2023-01-21T02:01:51.200Z,94349.44
2023-01-21T02:04:23.233Z,94320.28
2023-01-21T02:06:54.419Z,94346.38
2023-01-21T02:09:21.496Z,94345.56
2023-01-21T02:11:48.280Z,94326.91
2023-01-21T02:14:14.921Z,94341.38
2023-01-21T02:17:14.702Z,94340.81
2023-01-21T02:20:04.377Z,94341.25
2023-01-21T02:22:52.745Z,94325.31
2023-01-21T02:25:41.693Z,94322.41
2023-01-21T02:28:57.127Z,94321.47
2023-01-21T02:31:51.186Z,94313.06
2023-01-21T02:34:27.751Z,94303.56
2023-01-21T02:37:00.295Z,94308.84
2023-01-21T02:40:00.432Z,94301.81
2023-01-21T02:42:41.264Z,94263.53
2023-01-21T02:45:25.758Z,94294.03
2023-01-21T02:48:14.590Z,94296.94
2023-01-21T02:50:45.355Z,94306.34
2023-01-21T02:53:31.865Z,94309.22
2023-01-21T02:56:09.577Z,94294.63
2023-01-21T02:58:44.329Z,94291.00
2023-01-21T03:01:20.041Z,94285.28
2023-01-21T03:03:52.409Z,94290.75
2023-01-21T03:06:40.625Z,94280.44
2023-01-21T03:09:10.208Z,94284.44
2023-01-21T03:11:37.380Z,94272.19
2023-01-21T03:14:48.172Z,94281.50
2023-01-21T03:17:24.862Z,94255.66
2023-01-21T03:20:27.977Z,94269.88
2023-01-21T03:23:05.513Z,94265.31
2023-01-21T03:25:34.709Z,94255.31
2023-01-21T03:28:06.553Z,94268.75
2023-01-21T03:30:35.175Z,94266.78
2023-01-21T03:33:03.129Z,94267.09
2023-01-21T03:35:34.733Z,94258.88
2023-01-21T03:38:12.131Z,94243.75
2023-01-21T03:40:53.504Z,94229.50
2023-01-21T03:43:20.741Z,94231.97
2023-01-21T03:45:58.086Z,94245.91
2023-01-21T03:48:49.623Z,94247.66
2023-01-21T03:51:24.593Z,94217.16
2023-01-21T03:53:58.487Z,94239.66
2023-01-21T03:56:26.555Z,94230.59
2023-01-21T03:58:53.567Z,94219.41
2023-01-21T04:01:20.419Z,94241.56
2023-01-21T04:03:47.054Z,94239.97
2023-01-21T04:06:18.402Z,94209.56
2023-01-21T04:08:45.529Z,94245.56
2023-01-21T04:11:12.234Z,94225.47
2023-01-21T04:13:38.858Z,94233.28
2023-01-21T04:16:06.147Z,94229.97
2023-01-21T04:18:32.742Z,94228.25
2023-01-21T04:20:59.624Z,94211.66
2023-01-21T04:23:26.288Z,94216.81
2023-01-21T04:25:53.433Z,94219.25
2023-01-21T04:28:20.397Z,94234.94
2023-01-21T04:30:48.209Z,94220.00
2023-01-21T04:33:15.265Z,94220.63
2023-01-21T04:35:41.847Z,94216.16
2023-01-21T04:38:08.529Z,94244.09
2023-01-21T04:40:35.172Z,94260.94
2023-01-21T04:43:01.748Z,94247.94
2023-01-21T04:45:28.348Z,94266.06
2023-01-21T04:47:54.928Z,94267.53
2023-01-21T04:50:21.650Z,94272.81
2023-01-21T04:52:48.262Z,94281.75
2023-01-21T04:55:15.228Z,94272.63
2023-01-21T04:57:41.997Z,94254.56
2023-01-21T05:00:09.774Z,94275.38
2023-01-21T05:02:36.464Z,94276.22
2023-01-21T05:05:03.220Z,94287.72
2023-01-21T05:07:29.870Z,94285.44
2023-01-21T05:09:56.496Z,94292.16
2023-01-21T05:12:23.080Z,94288.25
2023-01-21T05:14:53.840Z,94286.59
2023-01-21T05:17:20.906Z,94281.50
2023-01-21T05:19:47.513Z,94284.53
2023-01-21T05:22:14.184Z,94281.75
2023-01-21T05:24:40.776Z,94280.25
2023-01-21T05:27:07.400Z,94289.53
2023-01-21T05:29:33.998Z,94307.13
2023-01-21T05:32:00.671Z,94306.50
2023-01-21T05:34:27.414Z,94306.38
2023-01-21T05:36:54.036Z,94311.88
2023-01-21T05:39:20.653Z,94308.59
2023-01-21T05:41:47.253Z,94289.03
2023-01-21T05:44:14.662Z,94298.25
2023-01-21T05:46:42.672Z,94278.66
2023-01-21T05:49:09.309Z,94295.31
2023-01-21T05:51:35.903Z,94296.53
2023-01-21T05:54:02.513Z,94321.84
2023-01-21T05:56:29.230Z,94276.34
2023-01-21T05:58:55.819Z,94290.06
2023-01-21T06:01:22.486Z,94283.06
2023-01-21T06:03:49.199Z,94289.56
2023-01-21T06:06:15.814Z,94304.59
2023-01-21T06:08:42.461Z,94304.69
2023-01-21T06:11:09.289Z,94307.72
2023-01-21T06:13:36.014Z,94293.53
2023-01-21T06:16:02.639Z,94298.56
2023-01-21T06:18:29.248Z,94295.91
2023-01-21T06:20:59.222Z,94308.72
2023-01-21T06:23:25.983Z,94302.66
2023-01-21T06:25:52.530Z,94294.25
2023-01-21T06:28:19.172Z,94312.03
2023-01-21T06:30:45.934Z,94319.84
2023-01-21T06:33:12.559Z,94312.47
2023-01-21T06:35:39.220Z,94320.53
2023-01-21T06:38:05.861Z,94333.19
2023-01-21T06:40:32.572Z,94334.53
2023-01-21T06:42:59.227Z,94336.44
2023-01-21T06:45:25.927Z,94336.81
2023-01-21T06:47:52.583Z,94322.97
2023-01-21T06:50:19.621Z,94335.44
2023-01-21T06:52:47.816Z,94342.53
2023-01-21T06:55:15.583Z,94348.31
2023-01-21T06:57:43.401Z,94349.16
2023-01-21T07:00:11.865Z,94359.00
2023-01-21T07:02:38.676Z,94368.50
2023-01-21T07:05:06.278Z,94357.06
2023-01-21T07:07:32.889Z,94350.84
2023-01-21T07:09:59.542Z,94346.06
2023-01-21T07:12:26.156Z,94350.94
2023-01-21T07:14:52.847Z,94351.06
2023-01-21T07:17:19.422Z,94366.63
2023-01-21T07:19:45.999Z,94351.97
2023-01-21T07:22:12.558Z,94341.44
2023-01-21T07:24:39.326Z,94344.88
2023-01-21T07:27:06.266Z,94348.97
2023-01-21T07:29:32.917Z,94361.13
2023-01-21T07:31:59.584Z,94351.31
2023-01-21T07:34:26.205Z,94339.81
2023-01-21T07:36:52.803Z,94342.56
2023-01-21T07:39:19.456Z,94335.38
2023-01-21T07:41:46.683Z,94354.06
2023-01-21T07:44:13.395Z,94343.59
2023-01-21T07:46:40.099Z,94334.00
2023-01-21T07:49:06.772Z,94348.41
2023-01-21T07:51:33.387Z,94325.13
2023-01-21T07:54:00.134Z,94339.69
2023-01-21T07:56:27.242Z,94337.50
2023-01-21T07:58:53.927Z,94335.03
2023-01-21T08:01:20.736Z,94318.44
2023-01-21T08:03:47.359Z,94333.97
2023-01-21T08:06:14.033Z,94314.03
2023-01-21T08:08:40.570Z,94318.50
2023-01-21T08:11:07.243Z,94346.84
2023-01-21T08:13:33.812Z,94359.19
2023-01-21T08:16:00.513Z,94356.19
2023-01-21T08:18:27.138Z,94359.50
2023-01-21T08:20:56.849Z,94353.03
2023-01-21T08:23:23.916Z,94337.38
2023-01-21T08:25:50.630Z,94335.31
2023-01-21T08:28:18.115Z,94366.53
2023-01-21T08:30:44.827Z,94359.03
2023-01-21T08:33:11.675Z,94364.06
2023-01-21T08:35:38.375Z,94355.41
2023-01-21T08:38:05.336Z,94345.13
2023-01-21T08:40:31.905Z,94376.25
2023-01-21T08:42:59.880Z,94372.69
2023-01-21T08:45:27.727Z,94361.94
2023-01-21T08:47:54.326Z,94359.75
2023-01-21T08:50:21.252Z,94356.53
2023-01-21T08:52:55.493Z,94373.19
2023-01-21T08:55:26.675Z,94365.41
2023-01-21T08:57:58.473Z,94366.66
2023-01-21T09:00:25.750Z,94346.81
2023-01-21T09:02:52.383Z,94362.69
2023-01-21T09:05:19.730Z,94375.28
2023-01-21T09:07:47.017Z,94375.63
2023-01-21T09:10:33.967Z,94358.03
2023-01-21T09:13:04.857Z,94357.13
2023-01-21T09:15:31.435Z,94334.84
2023-01-21T09:17:58.124Z,94355.69
2023-01-21T09:20:24.763Z,94356.47
2023-01-21T09:22:51.334Z,94355.00
2023-01-21T09:25:18.200Z,94348.56
2023-01-21T09:27:45.327Z,94349.06
2023-01-21T09:30:12.200Z,94333.75
2023-01-21T09:32:38.801Z,94347.00
2023-01-21T09:35:05.772Z,94342.31
2023-01-21T09:37:34.790Z,94319.47
2023-01-21T09:40:01.852Z,94328.34
2023-01-21T09:42:32.650Z,94324.72
2023-01-21T09:45:01.209Z,94317.63
2023-01-21T09:47:43.233Z,94331.19
2023-01-21T09:50:14.224Z,94333.00
2023-01-21T09:52:45.015Z,94326.69
2023-01-21T09:55:36.065Z,94335.09
2023-01-21T09:58:18.130Z,94316.13
2023-01-21T10:01:03.622Z,94309.78
2023-01-21T10:03:40.435Z,94302.69
2023-01-21T10:06:27.062Z,94308.78
2023-01-21T10:09:15.941Z,94273.97
2023-01-21T10:12:01.528Z,94296.47
2023-01-21T10:14:50.696Z,94299.53
2023-01-21T10:17:36.165Z,94309.22
2023-01-21T10:20:34.977Z,94301.53
2023-01-21T10:23:12.339Z,94296.34
2023-01-21T10:25:40.441Z,94297.16
2023-01-21T10:28:30.496Z,94304.16
2023-01-21T10:31:03.164Z,94289.59
2023-01-21T10:33:33.251Z,94299.75
2023-01-21T10:36:08.871Z,94303.22
2023-01-21T10:38:56.131Z,94296.25
2023-01-21T10:41:50.529Z,94293.91
2023-01-21T10:44:32.315Z,94292.34
2023-01-21T10:47:26.615Z,94272.13
2023-01-21T10:50:03.248Z,94274.34
2023-01-21T10:52:55.490Z,94277.50
2023-01-21T10:55:59.830Z,94274.97
2023-01-21T10:58:42.697Z,94260.59
2023-01-21T11:01:21.956Z,94258.69
2023-01-21T11:03:51.720Z,94228.91
2023-01-21T11:06:20.627Z,94254.06
2023-01-21T11:08:51.245Z,94249.19
2023-01-21T11:11:29.472Z,94239.03
2023-01-21T11:13:56.504Z,94246.50
2023-01-21T11:16:45.373Z,94251.75
2023-01-21T11:19:31.599Z,94257.78
2023-01-21T11:22:00.869Z,94253.19
2023-01-21T11:24:29.747Z,94247.13
2023-01-21T11:27:00.263Z,94251.94
2023-01-21T11:29:38.457Z,94253.06
2023-01-21T11:32:17.506Z,94232.88
2023-01-21T11:34:46.416Z,94248.19
2023-01-21T11:37:24.322Z,94255.06
2023-01-21T11:40:06.021Z,94264.56
2023-01-21T11:42:32.770Z,94258.13
2023-01-21T11:45:06.346Z,94246.19
2023-01-21T11:47:46.661Z,94254.41
2023-01-21T11:50:40.755Z,94244.63
2023-01-21T11:53:07.810Z,94249.69
2023-01-21T11:55:53.292Z,94241.91
2023-01-21T11:58:24.131Z,94248.47
2023-01-21T12:01:00.284Z,94240.03
2023-01-21T12:03:48.681Z,94255.03
2023-01-21T12:06:21.468Z,94268.44
2023-01-21T12:08:55.050Z,94252.94
2023-01-21T12:11:25.010Z,94245.72
2023-01-21T12:14:18.732Z,94229.59
2023-01-21T12:16:54.065Z,94249.88
2023-01-21T12:19:53.034Z,94238.66
2023-01-21T12:23:04.139Z,94227.03
2023-01-21T12:25:40.816Z,94222.28
2023-01-21T12:28:28.641Z,94211.41
2023-01-21T12:31:11.983Z,94218.25
2023-01-21T12:33:53.658Z,94217.84
2023-01-21T12:36:33.686Z,94218.72
2023-01-21T12:39:29.612Z,94216.88
2023-01-21T12:42:31.711Z,94227.50
2023-01-21T12:45:02.920Z,94242.81
2023-01-21T12:47:36.067Z,94247.13
2023-01-21T12:50:24.348Z,94246.75
2023-01-21T12:53:26.233Z,94249.75
2023-01-21T12:56:22.002Z,94252.69
2023-01-21T12:58:58.233Z,94241.59
2023-01-21T13:01:45.701Z,94263.03
2023-01-21T13:04:32.440Z,94235.19
2023-01-21T13:07:05.679Z,94240.84
2023-01-21T13:09:41.202Z,94252.56
2023-01-21T13:12:25.958Z,94252.19
2023-01-21T13:15:02.333Z,94262.34
2023-01-21T13:17:33.999Z,94263.47
2023-01-21T13:20:00.729Z,94267.59
2023-01-21T13:23:00.139Z,94267.50
2023-01-21T13:25:56.029Z,94286.63
2023-01-21T13:28:22.562Z,94285.81
2023-01-21T13:31:10.818Z,94292.72
2023-01-21T13:34:08.081Z,94289.03
2023-01-21T13:36:37.708Z,94275.66
2023-01-21T13:39:05.391Z,94285.75
2023-01-21T13:41:58.174Z,94261.59
2023-01-21T13:44:27.801Z,94287.47
2023-01-21T13:47:18.875Z,94299.69
2023-01-21T13:49:54.695Z,94300.16
2023-01-21T13:52:48.912Z,94305.94
2023-01-21T13:55:43.127Z,94307.19
2023-01-21T13:58:30.610Z,94247.47
2023-01-21T14:01:06.971Z,94300.41
2023-01-21T14:04:04.279Z,94313.38
2023-01-21T14:06:49.869Z,94314.75
2023-01-21T14:09:26.907Z,94325.50
2023-01-21T14:12:18.148Z,94302.34
2023-01-21T14:15:03.436Z,94344.88
2023-01-21T14:18:00.863Z,94343.38
2023-01-21T14:20:39.416Z,94344.59
2023-01-21T14:23:15.142Z,94339.63
2023-01-21T14:26:29.891Z,94355.16
2023-01-21T14:29:27.311Z,94345.50
2023-01-21T14:32:07.987Z,94322.66
2023-01-21T14:34:55.658Z,94295.66
2023-01-21T14:37:41.202Z,94302.44
2023-01-21T14:40:23.775Z,94342.88
2023-01-21T14:42:52.057Z,94331.00
2023-01-21T14:45:22.431Z,94336.56
2023-01-21T14:47:52.076Z,94350.34
2023-01-21T14:50:43.642Z,94353.34
2023-01-21T14:53:13.232Z,94317.47
2023-01-21T14:55:39.908Z,94381.84
2023-01-21T14:58:06.686Z,94384.91
2023-01-21T15:00:37.574Z,94367.34
2023-01-21T15:03:30.554Z,94336.50
2023-01-21T15:06:02.286Z,94385.50
2023-01-21T15:08:46.234Z,94357.03
2023-01-21T15:11:29.062Z,94360.38
2023-01-21T15:14:11.148Z,94371.09
2023-01-21T15:16:43.019Z,94374.75
2023-01-21T15:19:12.861Z,94389.03
2023-01-21T15:21:42.756Z,94397.19
2023-01-21T15:24:32.437Z,94391.03
2023-01-21T15:27:28.155Z,94395.13
2023-01-21T15:29:54.765Z,94375.22
2023-01-21T15:32:29.017Z,94373.72
2023-01-21T15:35:23.937Z,94385.78
2023-01-21T15:38:01.983Z,94368.47
2023-01-21T15:40:40.281Z,94380.81
2023-01-21T15:43:25.605Z,94400.38
2023-01-21T15:45:58.575Z,94406.56
2023-01-21T15:48:41.357Z,94406.28
2023-01-21T15:51:23.964Z,94407.78
2023-01-21T15:54:13.071Z,94385.50
2023-01-21T15:57:12.640Z,94403.09
2023-01-21T16:00:05.220Z,94406.84
2023-01-21T16:03:01.814Z,94404.75
2023-01-21T16:05:41.677Z,94393.19
2023-01-21T16:08:08.445Z,94406.84
2023-01-21T16:10:41.066Z,94388.22
2023-01-21T16:13:19.952Z,94414.88
2023-01-21T16:16:12.704Z,94422.41
2023-01-21T16:18:41.987Z,94416.84
2023-01-21T16:21:09.858Z,94435.38
2023-01-21T16:23:40.621Z,94426.19
2023-01-21T16:26:07.403Z,94415.63
2023-01-21T16:28:49.712Z,94425.72
2023-01-21T16:31:16.573Z,94423.47
2023-01-21T16:33:43.446Z,94416.22
2023-01-21T16:36:14.312Z,94433.69
2023-01-21T16:38:42.983Z,94440.63
2023-01-21T16:41:15.471Z,94441.09
2023-01-21T16:43:54.657Z,94410.97
2023-01-21T16:46:26.448Z,94446.81
2023-01-21T16:48:57.468Z,94445.31
2023-01-21T16:51:28.918Z,94463.69
2023-01-21T16:54:20.432Z,94459.91
2023-01-21T16:57:12.897Z,94440.16
2023-01-21T16:59:41.830Z,94459.47
2023-01-21T17:02:34.755Z,94459.91
2023-01-21T17:05:05.252Z,94463.97
2023-01-21T17:07:54.339Z,94456.75
2023-01-21T17:10:24.550Z,94471.47
2023-01-21T17:12:58.751Z,94474.53
2023-01-21T17:15:36.363Z,94487.78
2023-01-21T17:18:05.872Z,94502.44
2023-01-21T17:20:35.550Z,94500.00
2023-01-21T17:23:25.815Z,94491.28
2023-01-21T17:26:00.665Z,94508.91
2023-01-21T17:28:59.196Z,94506.66
2023-01-21T17:31:29.450Z,94435.97
2023-01-21T17:34:24.708Z,94492.34
2023-01-21T17:36:53.079Z,94510.41
2023-01-21T17:39:50.694Z,94500.75
2023-01-21T17:42:20.447Z,94488.56
2023-01-21T17:44:59.155Z,94507.69
2023-01-21T17:47:41.783Z,94506.94
2023-01-21T17:50:27.380Z,94481.78
2023-01-21T17:53:01.736Z,94506.94
2023-01-21T17:55:36.490Z,94501.38
2023-01-21T17:58:05.839Z,94502.25
2023-01-21T18:00:44.607Z,94505.09
2023-01-21T18:03:12.380Z,94503.41
2023-01-21T18:05:41.143Z,94525.41
2023-01-21T18:08:15.257Z,94531.44
2023-01-21T18:10:42.415Z,94535.81
2023-01-21T18:13:18.514Z,94517.25
2023-01-21T18:15:46.702Z,94534.19
2023-01-21T18:18:19.739Z,94521.53
2023-01-21T18:20:47.058Z,94540.97
2023-01-21T18:23:15.039Z,94525.44
2023-01-21T18:25:42.377Z,94521.41
2023-01-21T18:28:21.829Z,94528.63
2023-01-21T18:30:49.853Z,94531.50
2023-01-21T18:33:17.414Z,94539.03
2023-01-21T18:35:49.493Z,94538.28
2023-01-21T18:38:27.055Z,94539.78
2023-01-21T18:40:55.335Z,94551.84
2023-01-21T18:43:22.142Z,94559.69
2023-01-21T18:45:48.966Z,94529.53
2023-01-21T18:48:17.314Z,94550.03
2023-01-21T18:50:44.148Z,94532.69
2023-01-21T18:53:12.956Z,94573.09
2023-01-21T18:55:43.834Z,94564.50
2023-01-21T18:58:16.574Z,94575.19
2023-01-21T19:00:43.490Z,94570.50
2023-01-21T19:03:13.980Z,94576.00
2023-01-21T19:05:43.377Z,94556.78
2023-01-21T19:08:19.060Z,94565.69
2023-01-21T19:10:45.895Z,94564.22
2023-01-21T19:13:12.690Z,94576.88
2023-01-21T19:15:39.742Z,94553.31
2023-01-21T19:18:11.418Z,94566.72
2023-01-21T19:20:41.619Z,94553.56
2023-01-21T19:23:17.985Z,94583.56
2023-01-21T19:25:55.945Z,94577.78
2023-01-21T19:28:23.799Z,94573.78
2023-01-21T19:30:55.584Z,94589.63
2023-01-21T19:33:23.481Z,94582.50
2023-01-21T19:36:02.394Z,94590.63
2023-01-21T19:38:29.601Z,94583.94
2023-01-21T19:40:56.448Z,94548.88
2023-01-21T19:43:23.340Z,94588.19
2023-01-21T19:45:52.407Z,94606.47
2023-01-21T19:48:21.342Z,94571.69
2023-01-21T19:50:48.752Z,94597.91
2023-01-21T19:53:17.698Z,94603.66
2023-01-21T19:55:46.380Z,94597.69
2023-01-21T19:58:26.459Z,94604.88
2023-01-21T20:00:56.357Z,94619.13
2023-01-21T20:03:24.935Z,94620.22
2023-01-21T20:05:54.931Z,94630.50
2023-01-21T20:08:24.120Z,94621.63
2023-01-21T20:10:50.960Z,94611.59
2023-01-21T20:13:18.358Z,94612.53
2023-01-21T20:15:46.813Z,94616.38
2023-01-21T20:18:26.388Z,94615.78
2023-01-21T20:20:53.660Z,94616.06
2023-01-21T20:23:22.066Z,94626.16
2023-01-21T20:25:51.861Z,94620.44
2023-01-21T20:28:22.899Z,94633.56
2023-01-21T20:30:51.711Z,94647.41
2023-01-21T20:33:20.647Z,94642.28
2023-01-21T20:35:52.874Z,94643.38
2023-01-21T20:38:27.737Z,94607.53
2023-01-21T20:40:54.412Z,94622.41
2023-01-21T20:43:21.147Z,94648.59
2023-01-21T20:45:49.548Z,94641.28
2023-01-21T20:48:25.405Z,94651.41
2023-01-21T20:50:52.422Z,94658.03
2023-01-21T20:53:19.236Z,94637.16
2023-01-21T20:55:47.710Z,94664.81
2023-01-21T20:58:16.350Z,94667.31
2023-01-21T21:00:45.139Z,94670.81
2023-01-21T21:03:13.448Z,94677.94
2023-01-21T21:05:40.488Z,94669.13
2023-01-21T21:08:07.187Z,94689.09
2023-01-21T21:10:36.748Z,94692.34
2023-01-21T21:13:04.364Z,94685.31
2023-01-21T21:15:34.859Z,94685.53
2023-01-21T21:18:04.003Z,94657.97
2023-01-21T21:20:33.483Z,94697.13
2023-01-21T21:23:00.540Z,94686.00
2023-01-21T21:25:29.870Z,94691.94
2023-01-21T21:27:57.451Z,94687.50
2023-01-21T21:30:30.072Z,94709.75
2023-01-21T21:32:58.369Z,94713.97
2023-01-21T21:35:32.345Z,94714.47
2023-01-21T21:38:04.737Z,94692.81
2023-01-21T21:40:31.760Z,94708.09
2023-01-21T21:43:17.686Z,94671.69
2023-01-21T21:46:04.732Z,94690.97
2023-01-21T21:48:42.423Z,94712.53
2023-01-21T21:51:14.820Z,94685.69
2023-01-21T21:53:41.863Z,94697.59
2023-01-21T21:56:14.238Z,94716.59
2023-01-21T21:58:40.832Z,94706.38
2023-01-21T22:01:10.019Z,94702.44
2023-01-21T22:03:36.912Z,94696.22
2023-01-21T22:06:04.131Z,94685.31
2023-01-21T22:08:32.654Z,94685.41
2023-01-21T22:11:04.749Z,94699.47
2023-01-21T22:13:33.521Z,94686.81
2023-01-21T22:16:01.710Z,94690.53
2023-01-21T22:18:29.722Z,94676.84
2023-01-21T22:21:04.244Z,94694.88
2023-01-21T22:23:31.835Z,94712.09
2023-01-21T22:26:00.744Z,94719.91
2023-01-21T22:28:27.649Z,94725.97
2023-01-21T22:30:54.881Z,94731.91
2023-01-21T22:33:22.326Z,94731.31
2023-01-21T22:35:48.999Z,94713.53
2023-01-21T22:38:15.646Z,94730.00
2023-01-21T22:40:42.286Z,94723.03
2023-01-21T22:43:11.097Z,94737.75
2023-01-21T22:45:37.715Z,94735.47
2023-01-21T22:48:04.371Z,94734.94
2023-01-21T22:50:31.161Z,94747.41
2023-01-21T22:52:57.767Z,94717.00
2023-01-21T22:55:24.455Z,94735.50
2023-01-21T22:57:51.082Z,94738.41
2023-01-21T23:00:38.207Z,94748.25
2023-01-21T23:03:06.591Z,94723.38
2023-01-21T23:05:34.833Z,94723.59
2023-01-21T23:08:01.516Z,94694.09
2023-01-21T23:10:28.165Z,94748.28
2023-01-21T23:12:56.108Z,94739.41
2023-01-21T23:15:23.884Z,94736.94
2023-01-21T23:17:52.822Z,94745.50
2023-01-21T23:20:20.772Z,94751.41
2023-01-21T23:22:47.465Z,94758.56
2023-01-21T23:25:14.825Z,94765.34
2023-01-21T23:27:41.574Z,94778.88
2023-01-21T23:30:09.819Z,94780.59
2023-01-21T23:32:36.429Z,94782.81
2023-01-21T23:35:03.057Z,94757.13
2023-01-21T23:37:29.712Z,94753.00
2023-01-21T23:39:56.294Z,94743.28
2023-01-21T23:42:23.719Z,94775.13
2023-01-21T23:44:50.885Z,94784.00
2023-01-21T23:47:18.152Z,94776.16
2023-01-21T23:49:44.735Z,94782.75
2023-01-21T23:52:12.529Z,94781.66
2023-01-21T23:54:46.191Z,94769.31
2023-01-21T23:57:13.086Z,94785.66
2023-01-21T23:59:39.720Z,94794.19
